Weather at RAAF Base Richmond

Public forecast

Using degrees Celsius for public forecast. Weather courtesy of forecast.io.

Current aviation weather report (METAR) for RAAF Base Richmond

2024/07/24 14:00 (retrieved 22 minutes ago)

YSRI 241400Z AUTO 02006KT 9999 // NCD 11/08 Q1019 RF000/0000

Aviation forecast (TAF) for RAAF Base Richmond

2024/07/24 12:36 (retrieved 2 hours ago)

TAF YSRI 241134Z 2412/2512 VRB03KT CAVOK FM250000 35015G25KT CAVOK FM250500 35014KT CAVOK